KPPA/PPA METAR and TAF weather

Enter ICAO airport designator
Station Type Date Time Source
KPPA METAR 2022/06/26 07:55 UTC NOAA

KPPA 260755Z AUTO 04015KT 10SM SCT025 SCT070 OVC090 20/18 A3027 RMK AO2 LTG DSNT ALQS T02020183


Station Type Date Time Source
KPPA Decoded METAR 2022/06/26 07:55 UTC NOAA

Pampa, Perry Lefors Field Airport, TX, United States (KPPA) 35-36-46N 100-59-46W
Jun 26, 2022 - 03:55 AM EDT / 2022.06.26 0755 UTC
Wind: from the NE (040 degrees) at 17 MPH (15 KT):0
Visibility: 10 mile(s):0
Sky conditions: overcast
Weather: Lightning observed
Temperature: 68.4 F (20.2 C)
Dew Point: 64.9 F (18.3 C)
Relative Humidity: 88%
Pressure (altimeter): 30.27 in. Hg (1025 hPa)
ob: KPPA 260755Z AUTO 04015KT 10SM SCT025 SCT070 OVC090 20/18 A3027 RMK AO2 LTG DSNT ALQS T02020183
cycle: 8

Station Type Date Time Source
KPPA TAF UTC NOAA

Error!

Example: see airport list